Vaduz, Liechtenstein

3:25 PM CET on December 18, 2014 (GMT +0100)
IOBERLAN3 | Change Station
CLOSE
Current Station
Personal Weather Station
Location: Vaduz, Oberland
Elevation: 1690 ft
Nearby Weather Stations

Elev 1690 ft 47.15 °N, 9.52 °E | Updated 6 minutes ago

Light Rain
Light Rain
45.3 °F
Feels Like 45 °F
N
2.0
Wind Variable Wind from NNE
Gusts 7.0 mph

Today
High -- | Low -- °F
--% Chance of Precip.
Yesterday
High -- | Low -- °F
Precip. -- in
8:03 AM 4:33 PM
Waning Crescent, 14% visible
Pressure 30.12 in
Visibility 3.7 miles
Clouds Few 1100 ft
Mostly Cloudy 3000 ft
Windchill 45 °F
Dew Point 41 °F
Humidity 84%
Rainfall 0.04 in
Snow Depth Not available.
UV 0.0 out of 12
Pollen Not available.
Air Quality Not available.
Flu Activity Not available.
METAR LSZR 181420Z VRB02KT 6000 -RA FEW011 BKN030 09/09 Q1020 NOSIG RMK J

More Conditions Fewer Conditions

Pressure 30.12 in
Visibility 3.7 miles
Clouds Few 1100 ft
Mostly Cloudy 3000 ft
Windchill 45 °F
Dew Point 41 °F
Humidity 84%
Rainfall 0.04 in
Snow Depth Not available.
UV 0.0 out of 12
Pollen Not available.
Air Quality Not available.
Flu Activity Not available.
METAR LSZR 181420Z VRB02KT 6000 -RA FEW011 BKN030 09/09 Q1020 NOSIG RMK J

More Conditions Fewer Conditions

10-Day Weather Forecast

Almanac

Astronomy

Dec. 18, 2014 Rise Set
Actual Time
Civil Twilight
Nautical Twilight
Astronomical Twilight
Moon
Length of Visible Light
Length of Day
Tomorrow will be .
, % of the Moon is Illuminated

Today's Extremes

Country Highs Country Lows

Community

WunderPhotos

Upload Photos

1,778,929 photos uploaded!

WunderBlogs® & News

Nearby

Air Quality

  Air Quality AQ Index Pollutant
Not available.

Snow Depth

Station Depth Elevation

Earthquake Activity

City Distance Mag. Time & Date
Minimum magnitude displayed is 2.5.

Coastal Water Temperatures

Place Temperature

Nearby Weather Stations